createdAt,value
2022-09-28T00:02:24.196Z,87.19
2022-09-28T00:04:50.784Z,87.35
2022-09-28T00:07:18.182Z,88.15
2022-09-28T00:09:44.623Z,87.40
2022-09-28T00:12:11.888Z,87.97
2022-09-28T00:14:40.478Z,87.24
2022-09-28T00:17:08.208Z,87.23
2022-09-28T00:19:34.595Z,87.36
2022-09-28T00:22:01.039Z,87.92
2022-09-28T00:24:27.980Z,88.00
2022-09-28T00:26:56.647Z,87.90
2022-09-28T00:29:34.492Z,88.12
2022-09-28T00:32:06.942Z,87.92
2022-09-28T00:34:36.231Z,87.86
2022-09-28T00:37:04.683Z,87.73
2022-09-28T00:39:31.770Z,88.34
2022-09-28T00:41:58.980Z,88.25
2022-09-28T00:44:25.368Z,88.37
2022-09-28T00:47:29.051Z,87.66
2022-09-28T00:50:04.037Z,87.67
2022-09-28T00:52:36.641Z,86.94
2022-09-28T00:55:07.788Z,87.55
2022-09-28T00:57:35.769Z,87.18
2022-09-28T01:00:04.035Z,87.08
2022-09-28T01:02:31.296Z,86.84
2022-09-28T01:04:58.745Z,86.83
2022-09-28T01:07:26.610Z,86.81
2022-09-28T01:09:54.197Z,87.06
2022-09-28T01:12:20.613Z,86.48
2022-09-28T01:14:48.665Z,87.01
2022-09-28T01:17:53.350Z,86.91
2022-09-28T01:20:37.801Z,87.78
2022-09-28T01:23:25.457Z,87.23
2022-09-28T01:26:18.497Z,86.92
2022-09-28T01:28:50.622Z,87.21
2022-09-28T01:31:19.010Z,86.46
2022-09-28T01:33:55.551Z,86.88
2022-09-28T01:36:26.664Z,86.26
2022-09-28T01:38:57.579Z,86.80
2022-09-28T01:41:27.621Z,87.18
2022-09-28T01:43:57.424Z,86.23
2022-09-28T01:46:28.858Z,86.97
2022-09-28T01:49:03.567Z,87.78
2022-09-28T01:51:40.540Z,87.65
2022-09-28T01:54:13.311Z,87.06
2022-09-28T01:56:45.964Z,87.67
2022-09-28T01:59:21.858Z,87.83
2022-09-28T02:02:32.535Z,87.98
2022-09-28T02:05:07.890Z,88.17
2022-09-28T02:07:46.562Z,88.92
2022-09-28T02:10:18.061Z,88.60
2022-09-28T02:12:56.234Z,89.16
2022-09-28T02:15:55.916Z,90.02
2022-09-28T02:18:22.335Z,90.06
2022-09-28T02:21:13.329Z,89.59
2022-09-28T02:23:44.330Z,89.74
2022-09-28T02:26:13.863Z,90.31
2022-09-28T02:28:40.341Z,90.27
2022-09-28T02:31:07.134Z,89.88
2022-09-28T02:33:40.018Z,89.56
2022-09-28T02:36:06.742Z,90.48
2022-09-28T02:38:33.181Z,89.99
2022-09-28T02:41:09.276Z,90.63
2022-09-28T02:44:00.959Z,90.70
2022-09-28T02:46:52.668Z,90.87
2022-09-28T02:49:30.841Z,91.26
2022-09-28T02:52:21.425Z,91.32
2022-09-28T02:55:12.968Z,90.84
2022-09-28T02:58:17.170Z,90.83
2022-09-28T03:01:04.391Z,91.74
2022-09-28T03:03:37.646Z,91.26
2022-09-28T03:06:32.110Z,91.21
2022-09-28T03:09:05.744Z,91.19
2022-09-28T03:11:39.694Z,91.04
2022-09-28T03:14:06.791Z,91.88
2022-09-28T03:16:33.301Z,92.46
2022-09-28T03:18:59.770Z,91.97
2022-09-28T03:21:26.135Z,91.31
2022-09-28T03:23:52.682Z,91.81
2022-09-28T03:26:19.861Z,92.03
2022-09-28T03:28:46.408Z,91.65
2022-09-28T03:31:13.056Z,91.98
2022-09-28T03:33:39.514Z,91.97
2022-09-28T03:36:07.182Z,91.54
2022-09-28T03:38:33.449Z,91.06
2022-09-28T03:41:00.610Z,91.56
2022-09-28T03:43:28.180Z,91.63
2022-09-28T03:45:59.897Z,92.38
2022-09-28T03:48:33.217Z,92.66
2022-09-28T03:51:02.413Z,92.13
2022-09-28T03:53:29.738Z,92.04
2022-09-28T03:56:01.593Z,92.48
2022-09-28T03:58:28.397Z,92.99
2022-09-28T04:00:54.809Z,92.69
2022-09-28T04:03:21.820Z,92.94
2022-09-28T04:05:50.060Z,93.04
2022-09-28T04:08:16.546Z,93.22
2022-09-28T04:10:42.946Z,93.22
2022-09-28T04:13:09.658Z,93.11
2022-09-28T04:15:38.039Z,93.65
2022-09-28T04:18:09.278Z,93.86
2022-09-28T04:20:35.653Z,93.36
2022-09-28T04:23:02.072Z,93.00
2022-09-28T04:25:28.483Z,92.83
2022-09-28T04:28:13.595Z,93.36
2022-09-28T04:30:39.994Z,93.83
2022-09-28T04:33:06.411Z,93.68
2022-09-28T04:35:32.773Z,93.98
2022-09-28T04:37:59.179Z,93.67
2022-09-28T04:40:25.552Z,93.47
2022-09-28T04:42:56.103Z,93.51
2022-09-28T04:45:25.301Z,93.99
2022-09-28T04:47:51.798Z,93.71
2022-09-28T04:50:18.232Z,93.84
2022-09-28T04:52:44.714Z,93.70
2022-09-28T04:55:13.547Z,93.94
2022-09-28T04:57:40.686Z,93.71
2022-09-28T05:00:08.705Z,93.33
2022-09-28T05:02:35.147Z,94.02
2022-09-28T05:05:01.645Z,93.81
2022-09-28T05:07:28.060Z,93.69
2022-09-28T05:09:55.300Z,93.73
2022-09-28T05:12:22.018Z,93.47
2022-09-28T05:14:48.415Z,93.56
2022-09-28T05:17:14.904Z,93.95
2022-09-28T05:19:41.305Z,94.13
2022-09-28T05:22:11.501Z,93.42
2022-09-28T05:24:38.910Z,93.72
2022-09-28T05:27:05.527Z,93.97
2022-09-28T05:29:32.596Z,93.93
2022-09-28T05:32:01.445Z,94.01
2022-09-28T05:34:28.083Z,94.29
2022-09-28T05:36:54.477Z,94.47
2022-09-28T05:39:21.040Z,93.82
2022-09-28T05:41:47.694Z,93.73
2022-09-28T05:44:14.123Z,93.65
2022-09-28T05:46:40.597Z,93.28
2022-09-28T05:49:07.123Z,94.00
2022-09-28T05:51:33.483Z,93.71
2022-09-28T05:54:05.395Z,93.33
2022-09-28T05:56:32.989Z,92.97
2022-09-28T05:58:59.565Z,93.13
2022-09-28T06:01:26.035Z,93.76
2022-09-28T06:03:52.471Z,93.43
2022-09-28T06:06:18.825Z,93.86
2022-09-28T06:08:46.273Z,93.89
2022-09-28T06:11:12.783Z,93.33
2022-09-28T06:13:39.985Z,93.66
2022-09-28T06:16:08.157Z,93.22
2022-09-28T06:18:34.602Z,93.21
2022-09-28T06:21:01.450Z,92.75
2022-09-28T06:23:27.811Z,92.49
2022-09-28T06:25:54.302Z,91.00
2022-09-28T06:28:21.645Z,90.72
2022-09-28T06:30:48.201Z,90.30
2022-09-28T06:33:15.388Z,89.63
2022-09-28T06:35:42.368Z,88.88
2022-09-28T06:38:08.936Z,88.71
2022-09-28T06:40:35.868Z,89.13
2022-09-28T06:43:09.897Z,88.87
2022-09-28T06:45:37.654Z,88.13
2022-09-28T06:48:05.446Z,88.14
2022-09-28T06:50:35.859Z,87.60
2022-09-28T06:53:02.352Z,87.60
2022-09-28T06:55:29.279Z,87.33
2022-09-28T06:58:00.583Z,86.45
2022-09-28T07:00:34.006Z,86.71
2022-09-28T07:03:03.248Z,86.94
2022-09-28T07:05:31.746Z,86.23
2022-09-28T07:07:58.243Z,86.47
2022-09-28T07:10:27.712Z,86.36
2022-09-28T07:12:55.534Z,84.98
2022-09-28T07:15:22.733Z,85.61
2022-09-28T07:18:00.164Z,84.73
2022-09-28T07:20:29.714Z,85.66
2022-09-28T07:23:12.623Z,84.15
2022-09-28T07:25:48.017Z,84.93
2022-09-28T07:28:15.167Z,84.53
2022-09-28T07:30:44.184Z,84.20
2022-09-28T07:33:12.745Z,85.41
2022-09-28T07:35:39.139Z,84.94
2022-09-28T07:38:07.126Z,84.02
2022-09-28T07:40:53.471Z,83.55
2022-09-28T07:43:20.928Z,82.26
2022-09-28T07:45:49.334Z,82.87
2022-09-28T07:48:17.142Z,84.23
2022-09-28T07:50:48.186Z,84.10
2022-09-28T07:53:14.573Z,83.92
2022-09-28T07:55:41.072Z,83.83
2022-09-28T07:58:07.790Z,85.09
2022-09-28T08:00:34.455Z,84.13
2022-09-28T08:03:12.607Z,82.63
2022-09-28T08:05:41.693Z,82.66
2022-09-28T08:08:08.236Z,81.09
2022-09-28T08:10:34.956Z,78.19
2022-09-28T08:13:04.780Z,75.69
2022-09-28T08:15:36.939Z,73.73
2022-09-28T08:18:04.330Z,76.17
2022-09-28T08:20:51.590Z,78.25
2022-09-28T08:23:18.696Z,80.75
2022-09-28T08:25:49.032Z,80.58
2022-09-28T08:28:17.756Z,80.35
2022-09-28T08:30:45.654Z,80.27
2022-09-28T08:33:13.293Z,81.37
2022-09-28T08:35:41.767Z,79.06
2022-09-28T08:38:08.871Z,80.22
2022-09-28T08:40:47.518Z,82.03
2022-09-28T08:43:28.173Z,88.25
2022-09-28T08:45:58.922Z,90.05
2022-09-28T08:48:51.752Z,84.92
2022-09-28T08:51:31.187Z,86.45
2022-09-28T08:54:11.092Z,84.56
2022-09-28T08:56:49.242Z,83.43
2022-09-28T08:59:29.901Z,82.93
2022-09-28T09:02:01.056Z,80.59
2022-09-28T09:04:27.580Z,77.32
2022-09-28T09:07:22.187Z,77.19
2022-09-28T09:10:11.360Z,79.98
2022-09-28T09:12:50.603Z,80.26
2022-09-28T09:15:29.123Z,80.00
2022-09-28T09:18:22.442Z,81.16
2022-09-28T09:21:06.167Z,82.15
2022-09-28T09:23:53.739Z,80.72
2022-09-28T09:26:29.026Z,79.62
2022-09-28T09:29:17.154Z,81.32
2022-09-28T09:32:22.695Z,80.94
2022-09-28T09:34:57.966Z,81.71
2022-09-28T09:37:35.614Z,78.48
2022-09-28T09:40:24.813Z,79.57
2022-09-28T09:43:17.961Z,79.22
2022-09-28T09:46:04.752Z,78.00
2022-09-28T09:48:34.938Z,78.50
2022-09-28T09:51:09.534Z,79.74
2022-09-28T09:54:00.327Z,74.16
2022-09-28T09:56:44.013Z,71.88
2022-09-28T09:59:24.228Z,67.67
2022-09-28T10:01:53.356Z,67.99
2022-09-28T10:04:31.040Z,69.38
2022-09-28T10:07:13.273Z,71.01
2022-09-28T10:09:43.705Z,73.04
2022-09-28T10:12:15.819Z,71.99
2022-09-28T10:14:42.546Z,71.43
2022-09-28T10:17:14.797Z,68.71
2022-09-28T10:19:43.049Z,62.71
2022-09-28T10:22:15.892Z,63.00
2022-09-28T10:24:45.738Z,63.79
2022-09-28T10:27:15.415Z,64.98
2022-09-28T10:30:00.940Z,61.19
2022-09-28T10:32:36.128Z,59.72
2022-09-28T10:35:27.192Z,55.85
2022-09-28T10:38:00.289Z,58.62
2022-09-28T10:40:39.063Z,52.56
2022-09-28T10:43:27.756Z,48.90
2022-09-28T10:46:22.863Z,46.07
2022-09-28T10:49:00.366Z,47.04
2022-09-28T10:51:53.597Z,46.32
2022-09-28T10:54:31.176Z,48.89
2022-09-28T10:56:58.857Z,50.03
2022-09-28T10:59:31.341Z,53.66
2022-09-28T11:02:02.676Z,53.93
2022-09-28T11:04:33.552Z,50.87
2022-09-28T11:07:02.070Z,50.22
2022-09-28T11:09:31.592Z,42.72
2022-09-28T11:12:03.635Z,39.80
2022-09-28T11:14:39.609Z,37.46
2022-09-28T11:17:41.982Z,36.55
2022-09-28T11:20:29.592Z,34.06
2022-09-28T11:23:00.954Z,37.59
2022-09-28T11:25:29.565Z,40.97
2022-09-28T11:28:00.040Z,39.10
2022-09-28T11:30:38.341Z,37.92
2022-09-28T11:33:19.396Z,38.85
2022-09-28T11:36:00.134Z,40.05
2022-09-28T11:38:40.283Z,39.60
2022-09-28T11:41:37.325Z,36.78
2022-09-28T11:44:12.771Z,35.26
2022-09-28T11:47:11.352Z,37.68
2022-09-28T11:49:46.885Z,44.65
2022-09-28T11:52:29.563Z,48.43
2022-09-28T11:55:26.947Z,49.43
2022-09-28T11:58:10.283Z,50.80
2022-09-28T12:00:45.200Z,52.06
2022-09-28T12:03:20.866Z,52.72
2022-09-28T12:05:55.488Z,49.61
2022-09-28T12:08:27.840Z,45.80
2022-09-28T12:11:09.687Z,42.70
2022-09-28T12:13:42.257Z,37.80
2022-09-28T12:17:03.981Z,31.93
2022-09-28T12:19:47.006Z,34.12
2022-09-28T12:22:24.189Z,29.40
2022-09-28T12:24:54.399Z,28.97
2022-09-28T12:27:27.704Z,28.46
2022-09-28T12:30:04.187Z,30.29
2022-09-28T12:32:35.668Z,29.46
2022-09-28T12:35:02.769Z,29.03
2022-09-28T12:37:41.163Z,29.72
2022-09-28T12:40:07.868Z,30.35
2022-09-28T12:42:37.119Z,28.47
2022-09-28T12:45:09.878Z,31.00
2022-09-28T12:47:39.005Z,30.53
2022-09-28T12:50:38.064Z,32.16
2022-09-28T12:53:29.904Z,32.47
2022-09-28T12:56:10.732Z,37.37
2022-09-28T12:59:01.069Z,40.66
2022-09-28T13:01:46.116Z,44.80
2022-09-28T13:04:25.087Z,47.00
2022-09-28T13:07:05.048Z,47.56
2022-09-28T13:10:01.783Z,47.93
2022-09-28T13:12:37.374Z,43.51
2022-09-28T13:15:23.668Z,39.03
2022-09-28T13:18:11.950Z,35.27
2022-09-28T13:20:42.029Z,32.72
2022-09-28T13:23:23.745Z,29.83
2022-09-28T13:25:57.023Z,31.63
2022-09-28T13:28:27.317Z,31.66
2022-09-28T13:33:56.244Z,35.63
2022-09-28T13:36:28.635Z,39.47
2022-09-28T13:38:59.361Z,41.91
2022-09-28T13:41:40.571Z,43.12
2022-09-28T13:44:12.876Z,46.87
2022-09-28T13:46:52.374Z,48.19
2022-09-28T13:49:32.669Z,49.04
2022-09-28T13:52:30.132Z,48.72
2022-09-28T13:55:02.578Z,50.21
2022-09-28T13:57:43.215Z,51.46
2022-09-28T14:00:30.580Z,51.17
2022-09-28T14:03:06.092Z,51.20
2022-09-28T14:05:47.308Z,51.41
2022-09-28T14:08:33.532Z,52.05
2022-09-28T14:11:24.707Z,51.52
2022-09-28T14:14:04.954Z,53.21
2022-09-28T14:16:32.936Z,54.54
2022-09-28T14:19:20.295Z,54.10
2022-09-28T14:22:10.859Z,55.43
2022-09-28T14:25:05.788Z,55.56
2022-09-28T14:28:05.394Z,56.50
2022-09-28T14:30:46.576Z,56.95
2022-09-28T14:33:19.237Z,57.71
2022-09-28T14:35:53.969Z,56.74
2022-09-28T14:38:50.405Z,57.43
2022-09-28T14:41:17.859Z,58.03
2022-09-28T14:43:44.090Z,57.81
2022-09-28T14:46:14.525Z,58.52
2022-09-28T14:48:57.814Z,58.11
2022-09-28T14:51:27.258Z,59.33
2022-09-28T14:53:56.335Z,60.32
2022-09-28T14:56:22.712Z,60.67
2022-09-28T14:58:56.662Z,60.45
2022-09-28T15:01:24.962Z,60.84
2022-09-28T15:03:57.067Z,61.29
2022-09-28T15:06:23.908Z,61.81
2022-09-28T15:08:50.276Z,61.05
2022-09-28T15:11:25.449Z,60.80
2022-09-28T15:14:06.376Z,60.36
2022-09-28T15:16:33.384Z,60.14
2022-09-28T15:19:23.085Z,58.82
2022-09-28T15:21:51.124Z,58.59
2022-09-28T15:24:31.498Z,57.65
2022-09-28T15:26:59.713Z,56.89
2022-09-28T15:29:31.036Z,57.27
2022-09-28T15:31:58.525Z,58.20
2022-09-28T15:34:48.805Z,59.95
2022-09-28T15:37:18.941Z,60.94
2022-09-28T15:39:48.239Z,62.00
2022-09-28T15:42:16.915Z,63.47
2022-09-28T15:45:07.883Z,64.14
2022-09-28T15:47:35.416Z,64.82
2022-09-28T15:50:09.234Z,65.50
2022-09-28T15:52:43.351Z,65.63
2022-09-28T15:55:24.899Z,67.32
2022-09-28T15:58:24.731Z,67.11
2022-09-28T16:01:17.072Z,68.80
2022-09-28T16:03:43.606Z,66.68
2022-09-28T16:06:10.787Z,68.64
2022-09-28T16:08:42.685Z,68.83
2022-09-28T16:11:26.424Z,68.59
2022-09-28T16:14:06.363Z,67.79
2022-09-28T16:16:50.570Z,69.34
2022-09-28T16:19:25.772Z,69.07
2022-09-28T16:21:55.724Z,66.67
2022-09-28T16:24:26.102Z,68.27
2022-09-28T16:27:00.942Z,67.78
2022-09-28T16:29:42.164Z,65.51
2022-09-28T16:32:24.674Z,67.16
2022-09-28T16:35:18.621Z,68.83
2022-09-28T16:37:45.539Z,69.47
2022-09-28T16:40:13.727Z,69.66
2022-09-28T16:42:46.784Z,69.80
2022-09-28T16:45:23.340Z,71.58
2022-09-28T16:47:52.920Z,71.96
2022-09-28T16:50:21.563Z,72.15
2022-09-28T16:53:15.184Z,71.33
2022-09-28T16:55:41.738Z,70.90
2022-09-28T16:58:08.357Z,73.72
2022-09-28T17:00:34.972Z,74.11
2022-09-28T17:03:02.241Z,74.78
2022-09-28T17:05:29.424Z,75.05
2022-09-28T17:08:02.107Z,75.72
2022-09-28T17:11:09.326Z,75.48
2022-09-28T17:13:36.887Z,74.83
2022-09-28T17:16:06.086Z,74.92
2022-09-28T17:18:32.522Z,77.16
2022-09-28T17:21:03.242Z,76.33
2022-09-28T17:23:30.451Z,76.73
2022-09-28T17:25:58.966Z,76.62
2022-09-28T17:28:28.411Z,77.13
2022-09-28T17:30:54.810Z,78.92
2022-09-28T17:33:21.442Z,79.72
2022-09-28T17:35:48.347Z,80.90
2022-09-28T17:38:15.952Z,80.12
2022-09-28T17:40:43.830Z,81.09
2022-09-28T17:43:10.279Z,80.41
2022-09-28T17:45:41.118Z,80.73
2022-09-28T17:48:14.693Z,81.90
2022-09-28T17:50:46.281Z,82.17
2022-09-28T17:53:14.706Z,83.16
2022-09-28T17:55:42.983Z,82.54
2022-09-28T17:58:20.938Z,83.71
2022-09-28T18:00:49.399Z,85.65
2022-09-28T18:03:20.639Z,86.79
2022-09-28T18:05:49.847Z,87.08
2022-09-28T18:08:21.126Z,86.95
2022-09-28T18:10:47.766Z,87.76
2022-09-28T18:13:14.796Z,87.76
2022-09-28T18:15:44.765Z,87.70
2022-09-28T18:18:13.050Z,86.28
2022-09-28T18:20:57.401Z,85.94
2022-09-28T18:23:33.331Z,86.28
2022-09-28T18:25:59.978Z,86.68
2022-09-28T18:28:29.435Z,87.00
2022-09-28T18:30:58.649Z,86.79
2022-09-28T18:33:30.713Z,86.03
2022-09-28T18:35:57.361Z,85.49
2022-09-28T18:38:31.726Z,86.34
2022-09-28T18:41:08.123Z,86.19
2022-09-28T18:43:36.564Z,86.89
2022-09-28T18:46:51.635Z,87.23
2022-09-28T18:50:16.914Z,88.82
2022-09-28T18:52:44.998Z,88.54
2022-09-28T18:55:12.282Z,88.86
2022-09-28T18:57:40.529Z,88.67
2022-09-28T19:00:11.834Z,88.87
2022-09-28T19:02:39.776Z,89.48
2022-09-28T19:05:06.940Z,89.33
2022-09-28T19:07:34.170Z,89.69
2022-09-28T19:10:02.340Z,89.85
2022-09-28T19:12:31.268Z,89.63
2022-09-28T19:15:00.440Z,90.11
2022-09-28T19:17:29.892Z,91.10
2022-09-28T19:19:56.414Z,91.12
2022-09-28T19:22:27.683Z,91.12
2022-09-28T19:24:54.427Z,90.79
2022-09-28T19:27:58.589Z,90.61
2022-09-28T19:36:54.805Z,92.28
2022-09-28T19:39:22.772Z,92.03
2022-09-28T19:42:02.358Z,92.48
2022-09-28T19:47:36.877Z,92.91
2022-09-28T19:50:34.130Z,92.95
2022-09-28T19:53:12.168Z,92.43
2022-09-28T19:59:09.840Z,92.54
2022-09-28T20:02:10.209Z,92.86
2022-09-28T20:04:58.524Z,92.79
2022-09-28T20:07:33.156Z,92.87
2022-09-28T20:21:37.200Z,93.69
2022-09-28T20:29:27.161Z,93.82
2022-09-28T20:54:30.341Z,94.65
2022-09-28T21:02:18.075Z,94.96
2022-09-28T21:09:40.275Z,94.51
2022-09-28T21:33:01.752Z,94.09
2022-09-28T21:35:28.477Z,94.08
2022-09-28T21:37:54.358Z,94.25
2022-09-28T21:40:20.825Z,94.54
2022-09-28T21:42:46.529Z,94.14
2022-09-28T21:45:12.474Z,94.12
2022-09-28T21:47:43.131Z,94.24
2022-09-28T21:50:09.069Z,94.56
2022-09-28T21:52:35.156Z,94.79
2022-09-28T21:55:00.986Z,94.60
2022-09-28T21:57:26.677Z,94.57
2022-09-28T21:59:52.464Z,94.61
2022-09-28T22:02:18.436Z,94.55
2022-09-28T22:04:44.188Z,94.00
2022-09-28T22:07:10.101Z,94.43
2022-09-28T22:12:03.289Z,94.45
2022-09-28T22:14:28.980Z,94.95
